Weather observations for the past three days for
Fremont Municipal Airport
Metric (Imperial)
Date Time (cdt) Wind (kph) Vis. (km) Weather Sky Cond. Temperature (ºC) Relative Humidity Wind Chill (°C) Heat Index (°C) Pressure Precipitation (cm)
Air Dwpt 6 hour altimeter (cm) sea level (mb) 1 hr 3 hr 6 hr
Max. Min.
31 05:55 W 6 16.09 Fair CLR 21.1 19.7 92% 75.82 0.0
31 05:35 Calm 16.09 Fair CLR 21.6 20 91% 75.84 0.0
31 05:15 Calm 16.09 Fair CLR 20.5 19.3 93% 75.82 0.0
31 04:55 Calm 16.09 Fair CLR 20.6 19.3 92% 75.82 0.0
31 04:35 Calm 16.09 Fair CLR 22 20.5 91% 75.82 0.0
31 04:15 SE 6 16.09 Fair CLR 20.7 19.4 92% 75.79 0.0
31 03:55 Calm 16.09 Fair CLR 21.5 20.1 92% 75.74 0.0
31 03:35 Calm 16.09 Fair CLR 20 19.1 95% 75.74 0.0
31 03:15 N 6 16.09 Fair CLR 21.3 19.7 91% 75.74 0.0
31 02:55 Calm 16.09 Fair CLR 21.2 20.1 93% 75.74 0.0
31 02:35 NW 9 16.09 Fair CLR 22.4 20.5 89% 75.74 0.0
31 02:15 Calm 16.09 Fair CLR 22.3 20.8 91% 75.74 0.0
31 01:55 Calm 16.09 Fair CLR 22.3 21.3 94% 75.74 0.0
31 01:35 Calm 16.09 Fair CLR 22.1 20.8 92% 75.74 0.0
31 01:15 Calm 16.09 Fair CLR 23 21.1 89% 75.74 0.0
31 00:55 Calm 16.09 Fair CLR 22.9 21.1 30.5 22.9 90% 75.74 0.0
31 00:35 Calm 16.09 Fair CLR 23.7 21.5 88% 75.74 0.0
31 00:15 Calm 16.09 Fair CLR 23.9 21.7 88% 24 75.74 0.0
30 23:55 S 6 16.09 Fair CLR 24.4 21.8 85% 25 75.72 0.0
30 23:35 Calm 16.09 Fair CLR 23.5 22 91% 75.72 0.0
30 23:15 Calm 16.09 Fair CLR 24.5 22.3 88% 25 75.74 0.0
30 22:55 Calm 16.09 Fair CLR 24.5 22.7 90% 25 75.74 0.0
30 22:35 Calm 16.09 Fair CLR 25.1 22.6 86% 26 75.74 0.0
30 22:15 Calm 16.09 Fair CLR 25 22.8 88% 26 75.74 0.0
30 21:55 Calm 16.09 Fair CLR 24.7 22.2 86% 25 75.74 0.0
30 21:35 Calm 16.09 Fair CLR 25.7 22.2 81% 27 75.74 0.0
30 21:15 Calm 16.09 Fair CLR 24.5 21.6 84% 25 75.74 0.0
30 20:55 Calm 16.09 Fair CLR 26.3 22.2 78% 28 75.72 0.0
30 20:35 Calm 16.09 Fair CLR 26.5 22.2 77% 28 75.69 0.0
30 20:15 Calm 16.09 Fair CLR 27.7 22 71% 30 75.69 0.0
30 19:55 Calm 16.09 Fair CLR 29 21.7 65% 32 75.69 0.0
30 19:35 Calm 16.09 Fair CLR 29.8 21.3 60% 33 75.69 0.0
30 19:15 Calm 16.09 Fair CLR 30.5 20.9 57% 33 75.69 0.0
30 18:55 S 7 16.09 Fair CLR 30.6 20.8 32 30.3 56% 33 75.69 0.0
30 18:35 SW 7 16.09 Fair CLR 31.3 20.3 52% 34 75.69 0.0
30 18:15 S 11 16.09 Fair CLR 31.7 20.3 51% 34 75.69 0.0
30 17:55 S 11 16.09 Fair CLR 31.9 20.2 50% 34 75.67 0.0
30 17:35 S 13 16.09 Fair CLR 31.8 20.5 51% 34 75.67 0.0
30 17:15 S 17 16.09 Fair CLR 31.7 20 50% 34 75.67 0.0
30 16:55 S 11 16.09 Fair CLR 31.4 20.3 52% 34 75.67 0.0
30 16:35 SW 13 16.09 Fair CLR 30.7 20.1 53% 33 75.67 0.0
30 16:15 SW 17 16.09 Fair CLR 30.7 19.6 52% 32 75.67 0.0
30 15:55 S 19 G 30 16.09 Fair CLR 30.8 19.3 50% 32 75.67 0.0
30 15:35 S 15 G 26 16.09 Fair CLR 31.7 20.4 51% 34 75.69 0.0
30 15:15 S 17 16.09 Fair CLR 31.3 19.9 51% 33 75.69 0.0
30 14:55 S 13 16.09 Fair CLR 30.8 19.9 52% 33 75.69 0.0
30 14:35 S 15 16.09 Fair CLR 31.5 20 50% 34 75.69 0.0
30 14:15 S 19 G 26 16.09 Fair CLR 31.1 19.6 50% 33 75.72 0.0
30 13:55 S 11 16.09 Fair CLR 30.8 20.2 53% 33 75.69 0.0
30 13:35 SW 6 16.09 Fair CLR 31 19.6 51% 33 75.69 0.0
30 13:15 SW 11 16.09 Fair CLR 31 19.6 51% 33 75.69 0.0
30 12:55 SW 11 16.09 Fair CLR 30.2 19.5 30.6 23.2 53% 32 75.74 0.0
30 12:35 SW 15 16.09 Fair CLR 29.9 19.5 54% 31 75.74 0.0
30 12:15 SW 13 16.09 Fair CLR 30.1 19.2 52% 32 75.74 0.0
30 11:55 SW 15 16.09 Fair CLR 29.6 19.3 54% 31 75.74 0.0
30 11:35 SW 7 16.09 Fair CLR 28.6 19.5 58% 30 75.74 0.0
30 11:18 S 11 16.09 Fair CLR 28 19 58% 29 75.74 0.0
30 10:58 S 9 16.09 Fair CLR 28 19 58% 29 75.74 0.0
30 10:35 S 13 16.09 Fair CLR 27.5 18.1 57% 28 75.72 0.0
30 10:15 SE 13 16.09 Fair CLR 26.7 18.1 59% 28 75.72 0.0
30 09:55 S 15 16.09 Thunderstorm in Vicinity CLR 26.3 17.7 59% 27 75.72 0.0
30 09:35 SE 11 16.09 Fair CLR 26.1 17.6 60% 27 75.72 0.0
30 09:15 SE 7 16.09 Fair CLR 25.7 17.7 61% 27 75.72 0.0
30 08:55 SE 6 16.09 Fair CLR 24.8 17.7 65% 26 75.72 0.0
30 08:35 SE 13 16.09 Fair CLR 24.1 17.5 67% 25 75.72 0.0
30 08:15 SE 11 16.09 Thunderstorm in Vicinity CLR 23.7 17.6 69% 75.72 0.0
30 07:55 SE 13 16.09 Thunderstorm in Vicinity CLR 24 17.4 67% 25 75.69 0.0
30 07:35 SE 9 16.09 Thunderstorm in Vicinity CLR 23.2 17.7 71% 75.69 0.0
30 07:15 E 6 16.09 Thunderstorm CLR 23.8 17.5 68% 75.72 0.0
30 06:55 Calm 16.09 Thunderstorm in Vicinity CLR 24.2 17.2 27.5 24.2 65% 25 75.69 0.0
30 06:35 S 9 16.09 Thunderstorm in Vicinity CLR 24.5 17.1 63% 26 75.69 0.0
30 06:15 SE 15 16.09 Fair CLR 25 17 61% 26 75.64 0.0
30 05:55 S 6 16.09 Fair CLR 25 17 61% 26 75.69 0.0
30 05:35 S 11 16.09 Fair CLR 25 17 61% 26 75.72 0.0
30 05:15 SW 13 16.09 Partly Cloudy SCT120 25.2 17 61% 26 75.79 0.0
30 04:55 SW 11 16.09 Thunderstorm in Vicinity SCT120 25.3 17 60% 26 75.74 0.0
30 04:35 S 9 16.09 Fair CLR 24.7 17.2 63% 26 75.74 0.0
30 04:15 SW 9 16.09 Partly Cloudy SCT110 25.4 17 60% 26 75.79 0.0
30 03:55 S 17 G 30 16.09 Partly Cloudy SCT110 26.1 16.6 56% 27 75.74 0.0
30 03:35 S 20 G 33 16.09 Fair CLR 26.3 16.6 55% 27 75.69 0.0
30 03:15 S 20 16.09 Fair CLR 26.5 16.7 55% 27 75.69 0.0
30 02:55 S 19 G 30 16.09 Fair CLR 26.6 16.7 55% 27 75.69 0.0
30 02:35 S 15 16.09 Fair CLR 26.5 17 56% 27 75.69 0.0
30 02:15 S 17 16.09 Fair CLR 26.6 17.2 56% 27 75.69 0.0
30 01:55 S 19 16.09 Fair CLR 26.7 17.5 57% 28 75.69 0.0
30 01:35 S 15 G 28 16.09 Fair CLR 27.2 17.5 55% 28 75.69 0.0
30 01:15 S 19 G 30 16.09 Fair CLR 27.3 17.6 55% 28 75.72 0.0
30 00:55 S 17 G 28 16.09 Fair CLR 27.3 18 30.3 27.1 57% 28 75.69 0.0
30 00:35 S 15 16.09 Fair CLR 27.5 18.2 57% 28 75.69 0.0
30 00:15 S 15 16.09 Fair CLR 27.3 18.7 59% 28 75.69 0.0
29 23:55 S 13 16.09 Fair CLR 27.2 19.2 62% 28 75.69 0.0
29 23:35 S 11 16.09 Fair CLR 27.2 19.6 63% 29 75.69 0.0
29 23:15 S 9 16.09 Fair CLR 27.5 20 64% 29 75.72 0.0
29 22:55 S 15 16.09 Fair CLR 27.7 20.2 64% 29 75.72 0.0
29 22:35 S 13 16.09 Fair CLR 27.9 20.5 64% 30 75.69 0.0
29 22:15 S 13 16.09 Fair CLR 28.1 20.9 65% 30 75.69 0.0
29 21:55 S 11 16.09 Fair CLR 28.2 21.1 65% 30 75.69 0.0
29 21:35 S 9 16.09 Fair CLR 28.5 21.5 66% 31 75.69 0.0
29 21:15 S 7 16.09 Fair CLR 28.6 21.5 65% 31 75.67 0.0
29 20:55 S 11 16.09 Fair CLR 28.2 21.7 68% 31 75.64 0.0
29 20:35 SE 7 16.09 Fair CLR 28.1 22 70% 31 75.64 0.0
29 20:15 SE 7 16.09 Fair CLR 28.7 22.5 69% 32 75.62 0.0
29 19:55 SE 6 16.09 Fair CLR 29.1 23 70% 33 75.62 0.0
29 19:35 SE 7 16.09 Fair CLR 29.7 23.1 68% 34 75.62 0.0
29 19:15 SE 7 16.09 Fair CLR 30.2 22.9 65% 34 75.64 0.0
29 18:55 SE 6 16.09 Fair CLR 30.5 22.5 32 26.9 62% 34 75.67 0.0
29 18:35 SE 9 16.09 Fair CLR 30.9 22.4 61% 35 75.67 0.0
29 18:15 S 9 16.09 Fair CLR 31.2 21.6 57% 34 75.67 0.0
29 17:55 S 15 16.09 Fair CLR 32 21 52% 35 75.67 0.0
29 17:35 S 15 16.09 Fair CLR 31.7 20.9 53% 34 75.67 0.0
29 17:15 S 9 16.09 Fair CLR 31.3 20 51% 33 75.69 0.0
29 16:55 S 20 G 28 16.09 Fair CLR 31.6 19.4 48% 33 75.69 0.0
29 16:35 S 15 16.09 Fair CLR 31.7 20.4 51% 34 75.69 0.0
29 16:15 S 13 G 26 16.09 Fair CLR 31 19.9 52% 33 75.69 0.0
29 15:55 S 13 16.09 Fair CLR 30 20.6 57% 32 75.72 0.0
29 15:35 S 15 G 30 16.09 Fair CLR 29.5 19.4 55% 31 75.72 0.0
29 15:15 S 15 16.09 Fair CLR 28.2 19.7 60% 30 75.74 0.0
29 14:55 SE 17 16.09 Partly Cloudy SCT050 27.4 18.9 60% 29 75.77 0.0
29 14:35 S 15 16.09 Partly Cloudy SCT044 SCT060 27.4 17.8 56% 28 75.79 0.0
29 14:15 S 19 G 26 16.09 Fair CLR 28 17.9 54% 29 75.82 0.0
29 13:55 S 15 16.09 Fair CLR 27.9 16.9 51% 28 75.82 0.0
29 13:35 S 15 G 31 16.09 Fair CLR 28.8 17.5 50% 29 75.84 0.0
29 13:15 S 19 G 26 16.09 Fair CLR 28.2 17.2 51% 29 75.84 0.0
29 12:55 S 22 G 33 16.09 Fair CLR 28.6 16.4 29 20.9 48% 29 75.84 0.0
29 12:35 S 19 G 26 16.09 Fair CLR 27.3 16.6 52% 28 75.87 0.0
29 12:15 S 19 G 28 16.09 Fair CLR 27 16.4 52% 28 75.87 0.0
29 11:55 S 19 G 30 16.09 Fair CLR 27.2 15.9 50% 28 75.87 0.0
29 11:35 S 24 G 39 16.09 Fair CLR 27 15.3 49% 27 75.9 0.0
29 11:15 S 22 G 30 16.09 Fair CLR 27.2 15.5 49% 28 75.9 0.0
29 10:55 S 22 G 35 16.09 Fair CLR 26.5 15.2 50% 27 75.9 0.0
29 10:35 S 20 G 33 16.09 Fair CLR 26.1 14.9 50% 27 75.92 0.0
29 10:15 S 15 16.09 Fair CLR 25.5 15.1 53% 26 75.92 0.0
29 09:55 S 15 G 30 16.09 Fair CLR 24.5 14.9 55% 26 75.92 0.0
29 09:35 S 20 G 30 16.09 Fair CLR 24.1 14.8 56% 25 75.92 0.0
29 09:15 S 17 G 31 16.09 Fair CLR 23.6 14.7 58% 75.92 0.0
29 08:55 S 24 G 35 16.09 Fair CLR 23 14.5 59% 75.95 0.0
29 08:35 S 15 G 28 16.09 Fair CLR 22.5 14.3 60% 75.95 0.0
29 08:15 S 15 16.09 Fair CLR 21.9 14.4 63% 75.95 0.0
29 07:55 S 15 G 26 16.09 Fair CLR 21.6 14.4 64% 75.95 0.0
29 07:35 S 19 G 26 16.09 Fair CLR 21.3 14.3 64% 75.95 0.0
29 07:15 S 19 16.09 Fair CLR 21 14.6 67% 75.95 0.0
29 06:55 S 17 G 26 16.09 Fair CLR 21 14.7 22.8 21 67% 75.97 0.0
29 06:35 S 17 G 26 16.09 Fair CLR 21.1 14.8 67% 75.97 0.0
29 06:15 S 13 G 28 16.09 Fair CLR 21.3 14.7 66% 75.95 0.0
29 05:55 S 22 G 30 16.09 Partly Cloudy SCT120 21.1 15 68% 75.97 0.0
29 05:35 S 19 G 30 16.09 Mostly Cloudy BKN110 21.2 15.2 69% 76 0.0
29 05:15 S 15 G 31 16.09 Partly Cloudy SCT100 21.3 15.3 69% 76.05 0.0
29 04:55 S 19 G 28 16.09 Fair CLR 21.5 15.5 69% 76.05 0.0
29 04:35 S 17 G 33 16.09 Fair CLR 21.5 15.7 70% 76.02 0.0
29 04:15 S 19 G 31 16.09 Fair CLR 21.5 15.8 70% 76.05 0.0
29 03:55 S 26 G 31 16.09 Fair CLR 22 15.8 68% 76.05 0.0
29 03:35 S 22 G 30 16.09 Fair CLR 22.2 15.9 68% 76.07 0.0
29 03:15 S 19 G 31 16.09 Fair CLR 22.3 16 68% 76.07 0.0
29 02:55 SE 17 16.09 Fair CLR 22.4 16.2 68% 76.1 0.0
29 02:35 S 22 G 28 16.09 Fair CLR 22.4 16.3 69% 76.1 0.0
29 02:15 S 19 G 31 16.09 Fair CLR 22.5 16.5 69% 76.12 0.0
29 01:55 SE 24 G 31 16.09 Fair CLR 22.6 16.5 69% 76.12 0.0
29 01:35 SE 20 16.09 Fair CLR 22.6 16.7 69% 76.12 0.0
29 01:15 SE 22 16.09 Fair CLR 22.7 17 70% 76.12 0.0
29 00:55 SE 19 G 30 16.09 Fair CLR 22.7 17.1 28 22.7 71% 76.12 0.0
29 00:35 SE 19 G 26 16.09 Fair CLR 22.9 17.4 71% 76.17 0.0
29 00:15 SE 15 G 28 16.09 Fair CLR 23 17.5 71% 76.17 0.0
28 23:55 SE 19 16.09 Fair CLR 23.1 17.5 71% 76.17 0.0
28 23:35 SE 17 16.09 Fair CLR 23.3 17.6 70% 76.17 0.0
28 23:15 SE 17 16.09 Fair CLR 23.4 18 72% 76.2 0.0
28 22:55 SE 20 16.09 Fair CLR 23.7 18.1 71% 76.2 0.0
28 22:35 SE 20 G 30 16.09 Fair CLR 24 18.2 70% 25 76.17 0.0
28 22:15 SE 19 16.09 Fair CLR 24.1 18.5 71% 25 76.2 0.0
28 21:55 SE 17 16.09 Fair CLR 24.4 18.6 70% 25 76.2 0.0
28 21:35 SE 15 16.09 Fair CLR 24.5 19 72% 25 76.17 0.0
28 21:15 SE 13 16.09 Fair CLR 25 19 69% 26 76.17 0.0
28 20:55 SE 17 16.09 Fair CLR 25.1 19.4 71% 26 76.17 0.0
28 20:35 SE 13 16.09 Fair CLR 25.1 19.8 73% 26 76.17 0.0
28 20:15 SE 17 G 28 16.09 Fair CLR 25.8 19.6 69% 27 76.17 0.0
28 19:55 SE 17 16.09 Fair CLR 26.3 19.6 67% 28 76.17 0.0
28 19:35 SE 17 16.09 Fair CLR 27 19.5 64% 28 76.2 0.0
28 19:15 SE 17 16.09 Fair CLR 27.5 19.5 62% 29 76.2 0.0
28 18:55 SE 19 16.09 Fair CLR 28 19.4 29.2 27.4 60% 29 76.23 0.0
28 18:35 SE 17 G 28 16.09 Fair CLR 28.5 19.3 58% 30 76.23 0.0
28 18:15 SE 15 16.09 Fair CLR 28.6 19.2 57% 30 76.23 0.0
28 17:55 SE 20 G 28 16.09 Fair CLR 28.7 18.9 55% 30 76.25 0.0
28 17:35 SE 17 16.09 Fair CLR 28.9 19 55% 30 76.25 0.0
28 17:15 S 19 G 31 16.09 Fair CLR 28.8 18.5 54% 30 76.25 0.0
28 16:55 S 24 G 33 16.09 Fair CLR 29.2 18.7 53% 30 76.28 0.0
28 16:35 S 20 G 26 16.09 Fair CLR 28.8 18.3 53% 30 76.3 0.0
28 16:15 S 19 G 28 16.09 Fair CLR 28.9 18.3 53% 30 76.3 0.0
28 15:55 SE 19 G 28 16.09 Fair CLR 28.7 18.2 53% 30 76.33 0.0
28 15:35 S 19 G 26 16.09 Fair CLR 28.7 18.3 53% 30 76.35 0.0
28 15:15 S 22 16.09 Fair CLR 28.6 18 53% 29 76.38 0.0
28 14:55 SE 19 G 28 16.09 Fair CLR 28.6 18.5 54% 30 76.38 0.0
28 14:35 S 19 16.09 Fair CLR 28.2 17.9 54% 29 76.38 0.0
28 14:15 S 15 G 28 16.09 Fair CLR 28 18 55% 29 76.4 0.0
28 13:55 S 17 G 28 16.09 Fair CLR 28.1 18.3 55% 29 76.43 0.0
28 13:35 S 19 G 28 16.09 Fair CLR 28 18.1 55% 29 76.43 0.0
28 13:15 SE 22 G 28 16.09 Fair CLR 27.6 17.8 55% 28 76.45 0.0
28 12:55 S 17 16.09 Fair CLR 27.3 17.9 27.3 18.1 57% 28 76.48 0.0
28 12:35 S 20 G 28 16.09 Fair CLR 26.7 17.6 57% 28 76.5 0.0
28 12:15 E 19 16.09 Fair CLR 26.9 18 58% 28 76.53 0.0
28 11:55 S 13 16.09 Fair CLR 26.1 17.9 61% 27 76.56 0.0
28 11:35 S 19 G 26 16.09 Fair CLR 25.8 17.6 61% 27 76.58 0.0
28 11:15 S 17 16.09 Fair CLR 25.5 17.8 63% 26 76.56 0.0
28 10:55 S 17 G 26 16.09 Fair CLR 25 17.1 62% 26 76.56 0.0
28 10:35 S 13 16.09 Fair CLR 24.2 17 64% 25 76.58 0.0
28 10:15 S 15 16.09 Fair CLR 24.1 17.3 66% 25 76.58 0.0
28 09:55 SE 9 16.09 Fair CLR 23.4 17.4 69% 76.56 0.0
28 09:35 SE 7 16.09 Fair CLR 22.6 17.4 73% 76.56 0.0
28 09:15 SE 13 16.09 Fair CLR 21.6 17 75% 76.58 0.0
28 08:55 SE 11 16.09 Fair CLR 21.3 17.1 77% 76.58 0.0
28 08:35 SE 9 16.09 Fair CLR 20.6 17 80% 76.58 0.0
28 08:15 SE 11 16.09 Fair CLR 20 17.1 83% 76.58 0.0
28 07:55 SE 6 16.09 Fair CLR 19.2 16.9 87% 76.56 0.0
28 07:35 Calm 16.09 Fair CLR 18.4 16.7 90% 76.56 0.0
28 07:15 SE 9 16.09 Fair CLR 18.2 16.4 89% 76.53 0.0
28 06:55 SE 7 16.09 Fair CLR 18.5 16.4 20.5 18.1 88% 76.53 0.0 0.3
28 06:35 SE 7 16.09 Partly Cloudy SCT080 18.6 16.5 88% 76.53 0.0
Date Time (cdt) Wind (kph) Vis. (km) Weather Sky Cond. Air Dwpt Max. Min. Relative Humidity Wind Chill (°C) Heat Index (°C) altimeter (cm) sea level (mb) 1 hr 3 hr 6 hr
6 hour
Temperature (ºC) Pressure Precipitation (cm)